Time;durP1;ratioP1;P1;durP2;ratioP2;P2;SDS_P1;SDS_P2;PMS_P1;PMS_P2;Temp;Humidity;BMP_temperature;BMP_pressure;BME280_temperature;BME280_humidity;BME280_pressure;Samples;Min_cycle;Max_cycle;Signal;HPM_P1;HPM_P2
2022/12/21 00:00:14;;;;;;;149.68;37.22;;;8.40;99.90;;;;;;4910233;29;20747;-83
2022/12/21 00:02:39;;;;;;;157.35;33.78;;;8.40;99.90;;;;;;4922454;29;20799;-84
2022/12/21 00:05:06;;;;;;;167.48;34.63;;;8.40;99.90;;;;;;4909660;29;20048;-83
2022/12/21 00:07:32;;;;;;;174.32;33.33;;;8.40;99.90;;;;;;4904261;29;21533;-83
2022/12/21 00:09:58;;;;;;;182.20;33.78;;;8.30;99.90;;;;;;4920593;29;20064;-83
2022/12/21 00:12:23;;;;;;;202.32;34.50;;;8.30;99.90;;;;;;4922631;29;20507;-85
2022/12/21 00:14:49;;;;;;;164.98;32.05;;;8.30;99.90;;;;;;4907308;29;20055;-83
2022/12/21 00:17:16;;;;;;;184.30;33.85;;;8.20;99.90;;;;;;4903196;29;20078;-83
2022/12/21 00:19:43;;;;;;;141.05;30.50;;;8.20;99.90;;;;;;4907574;29;20044;-83
2022/12/21 00:22:09;;;;;;;204.75;33.33;;;8.20;99.90;;;;;;4906429;29;20456;-83
2022/12/21 00:24:34;;;;;;;133.70;30.73;;;8.20;99.90;;;;;;4905867;29;20040;-83
2022/12/21 00:27:00;;;;;;;157.73;32.15;;;8.10;99.90;;;;;;4908655;29;20402;-86
2022/12/21 00:29:26;;;;;;;88.68;27.88;;;8.10;99.90;;;;;;4921561;29;20044;-85
2022/12/21 00:31:53;;;;;;;169.98;33.95;;;8.10;99.90;;;;;;4920446;29;20036;-82
2022/12/21 00:34:19;;;;;;;141.57;32.95;;;8.10;99.90;;;;;;4905157;29;20052;-84
2022/12/21 00:36:46;;;;;;;81.30;28.75;;;8.00;99.90;;;;;;4906374;29;20051;-84
2022/12/21 00:39:16;;;;;;;99.90;29.55;;;8.00;99.90;;;;;;4917883;29;20688;-86
2022/12/21 00:41:42;;;;;;;103.38;28.48;;;8.10;99.90;;;;;;4917876;29;20059;-83
2022/12/21 00:44:09;;;;;;;109.97;29.50;;;8.10;99.90;;;;;;4920128;29;20413;-83
2022/12/21 00:46:35;;;;;;;116.68;31.60;;;8.00;99.90;;;;;;4921332;29;20454;-83
2022/12/21 00:49:05;;;;;;;155.35;30.75;;;8.00;99.90;;;;;;4923518;29;20454;-84
2022/12/21 00:51:32;;;;;;;87.68;28.90;;;8.10;99.90;;;;;;4903034;29;20529;-83
2022/12/21 00:53:58;;;;;;;178.40;34.40;;;8.00;99.90;;;;;;4905303;29;20074;-83
2022/12/21 00:56:26;;;;;;;91.20;29.55;;;8.00;99.90;;;;;;4920833;29;20547;-85
2022/12/21 00:58:51;;;;;;;133.55;29.25;;;8.00;99.90;;;;;;4904167;29;20095;-84
2022/12/21 01:01:23;;;;;;;128.15;31.40;;;7.90;99.90;;;;;;4918287;29;20052;-83
2022/12/21 01:03:50;;;;;;;81.82;27.08;;;8.00;99.90;;;;;;4917497;29;20048;-83
2022/12/21 01:06:22;;;;;;;162.23;28.23;;;8.00;99.90;;;;;;4916244;29;20040;-85
2022/12/21 01:08:48;;;;;;;150.85;26.25;;;8.00;99.90;;;;;;4913974;29;20036;-83
2022/12/21 01:11:16;;;;;;;126.55;24.15;;;8.00;99.90;;;;;;4919644;29;20036;-85
2022/12/21 01:13:42;;;;;;;69.88;20.85;;;7.90;99.90;;;;;;4920513;29;20687;-83
2022/12/21 01:16:13;;;;;;;156.02;25.23;;;7.90;99.90;;;;;;4918535;29;20044;-83
2022/12/21 01:18:38;;;;;;;89.40;21.42;;;7.90;99.90;;;;;;4918473;29;20103;-84
2022/12/21 01:21:04;;;;;;;57.33;20.80;;;7.90;99.90;;;;;;4916006;29;20546;-86
2022/12/21 01:23:29;;;;;;;90.82;22.15;;;7.80;99.90;;;;;;4900419;29;20051;-86
2022/12/21 01:25:55;;;;;;;96.50;22.00;;;7.80;99.90;;;;;;4906389;29;20042;-83
2022/12/21 01:28:20;;;;;;;104.90;21.83;;;7.80;99.90;;;;;;4903205;29;20563;-83
2022/12/21 01:30:46;;;;;;;65.40;19.95;;;7.80;99.90;;;;;;4917358;29;20131;-83
2022/12/21 01:33:14;;;;;;;194.55;25.92;;;7.70;99.90;;;;;;4910395;29;20115;-84
2022/12/21 01:35:41;;;;;;;234.38;28.30;;;7.80;99.90;;;;;;4900943;29;20046;-83
2022/12/21 01:38:07;;;;;;;123.07;20.58;;;7.70;99.90;;;;;;4918139;29;20048;-83
2022/12/21 01:40:34;;;;;;;200.32;26.45;;;7.70;99.90;;;;;;4918431;29;20124;-84
2022/12/21 01:42:59;;;;;;;129.48;21.70;;;7.70;99.90;;;;;;4916143;29;20095;-83
2022/12/21 01:45:29;;;;;;;166.20;22.00;;;7.70;99.90;;;;;;4916457;29;20419;-83
2022/12/21 01:48:05;;;;;;;157.85;20.35;;;7.70;99.90;;;;;;4901021;29;20049;-83
2022/12/21 01:50:41;;;;;;;167.60;19.65;;;7.60;99.90;;;;;;4912417;29;20036;-82
2022/12/21 01:53:29;;;;;;;170.98;21.70;;;7.60;99.90;;;;;;4914231;29;20518;-86
2022/12/21 01:55:57;;;;;;;210.00;23.10;;;7.60;99.90;;;;;;4913871;29;20134;-84
2022/12/21 01:58:25;;;;;;;199.60;20.55;;;7.50;99.90;;;;;;4916727;29;20044;-85
2022/12/21 02:00:52;;;;;;;179.27;21.42;;;7.50;99.90;;;;;;4919474;29;20738;-83
2022/12/21 02:03:21;;;;;;;206.88;20.85;;;7.50;99.90;;;;;;4901319;29;20070;-84
2022/12/21 02:06:01;;;;;;;133.27;20.70;;;7.40;99.90;;;;;;4916699;29;20044;-84
2022/12/21 02:08:27;;;;;;;172.75;21.15;;;7.50;99.90;;;;;;4917380;29;20368;-84
2022/12/21 02:10:54;;;;;;;163.40;21.67;;;7.40;99.90;;;;;;4900126;29;20043;-83
2022/12/21 02:13:20;;;;;;;233.23;25.67;;;7.40;99.90;;;;;;4916509;29;20099;-83
2022/12/21 02:15:58;;;;;;;188.85;22.38;;;7.40;99.90;;;;;;4899281;29;20048;-84
2022/12/21 02:19:02;;;;;;;195.77;21.23;;;7.30;99.90;;;;;;4914343;29;20103;-86
2022/12/21 02:21:41;;;;;;;213.13;23.90;;;7.30;99.90;;;;;;4902085;29;20055;-87
2022/12/21 02:24:12;;;;;;;183.75;22.35;;;7.30;99.90;;;;;;4897782;29;20506;-84
2022/12/21 02:27:15;;;;;;;187.48;22.00;;;7.20;99.90;;;;;;4919782;29;20040;-83
2022/12/21 02:29:56;;;;;;;184.55;19.80;;;7.20;99.90;;;;;;4928109;29;20124;-82
2022/12/21 02:32:28;;;;;;;200.15;22.08;;;7.20;99.90;;;;;;4902672;29;20040;-83
2022/12/21 02:35:31;;;;;;;255.82;25.08;;;7.20;99.90;;;;;;4929150;29;20131;-85
2022/12/21 02:38:04;;;;;;;255.07;23.55;;;7.10;99.90;;;;;;4917004;29;20478;-87
2022/12/21 02:41:04;;;;;;;280.42;27.70;;;7.10;99.90;;;;;;4912680;29;20052;-83
2022/12/21 02:46:55;;;;;;;268.98;28.08;;;7.20;99.90;;;;;;4935480;29;20149;-82
2022/12/21 02:49:35;;;;;;;140.13;20.83;;;7.10;99.90;;;;;;4898977;29;20486;-83
2022/12/21 02:52:15;;;;;;;215.07;24.88;;;7.10;99.90;;;;;;4900715;29;20043;-82
2022/12/21 02:54:41;;;;;;;216.25;25.02;;;7.10;99.90;;;;;;4915969;29;20052;-83
2022/12/21 02:57:07;;;;;;;323.30;27.38;;;7.20;99.90;;;;;;4901604;29;20408;-83
2022/12/21 02:59:39;;;;;;;313.98;29.08;;;7.20;99.90;;;;;;4900731;29;20048;-85
2022/12/21 03:02:23;;;;;;;318.40;29.02;;;7.20;99.90;;;;;;4914961;29;20066;-83
2022/12/21 03:05:27;;;;;;;299.25;25.30;;;7.20;99.90;;;;;;4914388;29;20059;-83
2022/12/21 03:08:28;;;;;;;348.77;25.67;;;7.20;99.90;;;;;;4918571;29;20036;-85
2022/12/21 03:11:00;;;;;;;222.73;18.35;;;7.20;99.90;;;;;;4896682;29;20701;-83
2022/12/21 03:13:53;;;;;;;245.43;21.08;;;7.20;99.90;;;;;;4901337;29;20062;-83
2022/12/21 03:16:42;;;;;;;283.45;23.35;;;7.10;99.90;;;;;;4914054;29;20040;-83
2022/12/21 03:19:17;;;;;;;293.77;21.77;;;7.10;99.90;;;;;;4899899;29;20411;-83
2022/12/21 03:21:51;;;;;;;316.20;24.10;;;7.10;99.90;;;;;;4916384;29;21473;-83
2022/12/21 03:24:22;;;;;;;278.48;24.83;;;7.10;99.90;;;;;;4916821;29;20050;-86
2022/12/21 03:26:59;;;;;;;378.20;26.33;;;7.10;99.90;;;;;;4933172;29;20079;-83
2022/12/21 03:29:34;;;;;;;320.48;26.65;;;7.10;99.90;;;;;;4902132;29;20067;-83
2022/12/21 03:32:10;;;;;;;342.60;27.75;;;7.10;99.90;;;;;;4899168;29;20125;-84
2022/12/21 03:34:40;;;;;;;236.35;23.38;;;7.10;99.90;;;;;;4912873;29;20135;-82
2022/12/21 03:37:20;;;;;;;312.67;30.23;;;7.10;99.90;;;;;;4899611;29;20058;-83
2022/12/21 03:40:03;;;;;;;374.70;33.42;;;7.00;99.90;;;;;;4898247;29;20052;-82
2022/12/21 03:42:33;;;;;;;330.83;29.00;;;7.10;99.90;;;;;;4898310;29;20043;-83
2022/12/21 03:45:07;;;;;;;364.70;32.03;;;7.00;99.90;;;;;;4915659;29;20451;-85
2022/12/21 03:47:42;;;;;;;361.58;30.60;;;7.10;99.90;;;;;;4917695;29;20050;-83
2022/12/21 03:50:17;;;;;;;305.23;28.55;;;7.10;99.90;;;;;;4915174;29;20044;-85
2022/12/21 03:52:49;;;;;;;323.27;29.48;;;7.10;99.90;;;;;;4896664;29;20036;-83
2022/12/21 03:55:24;;;;;;;342.25;30.42;;;7.10;99.90;;;;;;4911438;29;20044;-82
2022/12/21 03:57:52;;;;;;;320.70;30.92;;;7.10;99.90;;;;;;4899167;29;20044;-83
2022/12/21 04:00:18;;;;;;;338.70;30.90;;;7.10;99.90;;;;;;4914206;29;20491;-84
2022/12/21 04:03:09;;;;;;;316.38;31.02;;;7.10;99.90;;;;;;4910138;29;20123;-85
2022/12/21 04:06:13;;;;;;;280.60;27.50;;;7.10;99.90;;;;;;4914157;29;20044;-84
2022/12/21 04:08:39;;;;;;;311.38;30.83;;;7.00;99.90;;;;;;4897352;29;20040;-84
2022/12/21 04:11:05;;;;;;;365.17;31.58;;;7.00;99.90;;;;;;4898235;29;20044;-82
2022/12/21 04:13:30;;;;;;;311.75;30.42;;;7.00;99.90;;;;;;4899666;29;20096;-84
2022/12/21 04:16:05;;;;;;;203.63;26.05;;;7.10;99.90;;;;;;4898111;29;20036;-83
2022/12/21 04:21:16;;;;;;;258.27;30.90;;;7.00;99.90;;;;;;4933808;29;20084;-83
2022/12/21 04:29:09;;;;;;;345.90;35.85;;;7.00;99.90;;;;;;4914742;29;20075;-83
2022/12/21 04:31:35;;;;;;;284.17;30.88;;;6.90;99.90;;;;;;4896829;29;20072;-86
2022/12/21 04:34:00;;;;;;;243.25;32.10;;;6.90;99.90;;;;;;4901897;29;20083;-86
2022/12/21 04:39:11;;;;;;;209.90;32.17;;;6.80;99.90;;;;;;4919377;29;20047;-83
2022/12/21 04:41:37;;;;;;;244.32;33.35;;;6.90;99.90;;;;;;4919137;29;20055;-83
2022/12/21 04:44:02;;;;;;;154.25;29.23;;;6.90;99.90;;;;;;4915151;29;20040;-83
2022/12/21 04:46:28;;;;;;;265.85;38.67;;;7.10;99.90;;;;;;4902111;29;20079;-83
2022/12/21 04:48:54;;;;;;;209.40;29.67;;;6.90;99.90;;;;;;4915074;29;20039;-86
2022/12/21 04:51:24;;;;;;;181.70;31.42;;;6.90;99.90;;;;;;4917912;29;20071;-83
2022/12/21 04:53:50;;;;;;;191.80;31.05;;;6.90;99.90;;;;;;4917228;29;20047;-86
2022/12/21 04:56:16;;;;;;;247.25;35.42;;;6.90;99.90;;;;;;4917805;29;20032;-85
2022/12/21 04:58:42;;;;;;;184.65;29.92;;;6.90;99.90;;;;;;4914685;29;20047;-86
2022/12/21 05:01:13;;;;;;;194.07;32.45;;;6.90;99.90;;;;;;4899060;29;20111;-83
2022/12/21 05:03:40;;;;;;;184.60;31.67;;;6.90;99.90;;;;;;4914947;29;20531;-83
2022/12/21 05:06:06;;;;;;;219.25;33.92;;;6.90;99.90;;;;;;4900031;29;20415;-86
2022/12/21 05:13:12;;;;;;;199.07;30.05;;;7.00;99.90;;;;;;4928916;29;20095;-86
2022/12/21 05:15:38;;;;;;;245.38;31.13;;;6.90;99.90;;;;;;4899043;29;20031;-83
2022/12/21 05:18:04;;;;;;;251.43;33.55;;;6.90;99.90;;;;;;4916518;29;20043;-82
2022/12/21 05:20:30;;;;;;;286.17;37.25;;;7.40;99.90;;;;;;4913526;29;20076;-83
2022/12/21 05:22:55;;;;;;;290.10;37.65;;;6.90;99.90;;;;;;4913870;29;21507;-87
2022/12/21 05:25:21;;;;;;;181.35;28.90;;;6.80;99.90;;;;;;4897453;29;20047;-84
2022/12/21 05:27:46;;;;;;;214.48;32.92;;;6.80;99.90;;;;;;4897174;29;20036;-84
2022/12/21 05:30:12;;;;;;;188.02;30.30;;;6.80;99.90;;;;;;4899313;29;20046;-82
2022/12/21 05:32:38;;;;;;;200.52;29.65;;;6.80;99.90;;;;;;4897638;29;20042;-85
2022/12/21 05:35:04;;;;;;;155.55;30.25;;;6.80;99.90;;;;;;4901088;29;20543;-83
2022/12/21 05:37:30;;;;;;;200.60;28.30;;;6.80;99.90;;;;;;4898894;29;20048;-84
2022/12/21 05:39:55;;;;;;;231.38;34.75;;;6.80;99.90;;;;;;4914328;29;20039;-85
2022/12/21 05:42:21;;;;;;;305.33;36.13;;;6.70;99.90;;;;;;4915533;29;20072;-84
2022/12/21 05:52:36;;;;;;;207.32;30.90;;;6.80;99.90;;;;;;4912133;29;20040;-87
2022/12/21 06:29:06;;;;;;;264.67;41.33;;;7.00;99.90;;;;;;4905417;29;20046;-84
2022/12/21 06:31:31;;;;;;;206.93;39.88;;;7.00;99.90;;;;;;4898181;29;20108;-84
2022/12/21 06:33:57;;;;;;;216.82;38.35;;;7.00;99.90;;;;;;4917221;29;20444;-83
2022/12/21 06:36:22;;;;;;;433.30;51.65;;;7.00;99.90;;;;;;4911441;29;20483;-83
2022/12/21 06:38:48;;;;;;;330.50;47.13;;;7.10;99.90;;;;;;4915150;29;20044;-84
2022/12/21 06:41:16;;;;;;;265.63;39.75;;;7.00;99.90;;;;;;4916323;29;20040;-84
2022/12/21 06:47:40;;;;;;;210.23;39.78;;;7.10;99.90;;;;;;4915307;29;20522;-89
2022/12/21 06:57:58;;;;;;;161.80;40.30;;;7.30;99.90;;;;;;4853064;29;20073;-89
2022/12/21 07:00:24;;;;;;;152.00;40.73;;;7.20;99.90;;;;;;4873387;29;20100;-88
2022/12/21 07:02:55;;;;;;;167.80;41.20;;;7.30;99.90;;;;;;4867254;29;20647;-82
2022/12/21 07:05:21;;;;;;;173.15;41.20;;;7.20;99.90;;;;;;4877558;29;20088;-82
2022/12/21 07:07:58;;;;;;;134.35;38.15;;;7.30;99.90;;;;;;4880320;29;20081;-85
2022/12/21 07:10:23;;;;;;;154.70;37.70;;;7.20;99.90;;;;;;4863060;29;20037;-88
2022/12/21 07:57:25;;;;;;;153.80;38.67;;;7.10;99.90;;;;;;4910236;29;20047;-88
2022/12/21 07:59:50;;;;;;;179.32;41.80;;;7.20;99.90;;;;;;4895812;29;20131;-85
2022/12/21 08:02:16;;;;;;;190.25;43.17;;;7.10;99.90;;;;;;4912091;29;20475;-87
2022/12/21 08:04:42;;;;;;;147.07;38.47;;;7.20;99.90;;;;;;4911318;29;20112;-84
2022/12/21 08:07:08;;;;;;;213.70;49.28;;;7.20;99.90;;;;;;4893703;29;20103;-85
2022/12/21 08:09:34;;;;;;;157.88;43.42;;;7.20;99.90;;;;;;4914303;29;20123;-85
2022/12/21 08:19:50;;;;;;;159.50;42.40;;;7.20;99.90;;;;;;4916804;29;20035;-89
2022/12/21 08:26:16;;;;;;;129.10;40.72;;;7.20;99.90;;;;;;4914160;29;20120;-90
2022/12/21 08:28:43;;;;;;;129.48;40.20;;;7.30;99.90;;;;;;4896777;29;20088;-89
2022/12/21 08:31:16;;;;;;;136.10;44.10;;;7.70;99.90;;;;;;4907761;29;20040;-88
2022/12/21 08:33:43;;;;;;;135.55;41.60;;;7.30;99.90;;;;;;4912200;29;20078;-88
2022/12/21 08:36:11;;;;;;;121.65;41.33;;;7.30;99.90;;;;;;4896199;29;20032;-88
2022/12/21 08:38:37;;;;;;;139.85;44.95;;;7.30;99.90;;;;;;4914782;29;20028;-88
2022/12/21 08:41:03;;;;;;;132.88;44.55;;;7.70;99.90;;;;;;4910810;29;20090;-89
2022/12/21 08:43:30;;;;;;;141.10;44.67;;;7.30;99.90;;;;;;4897492;29;20104;-88
2022/12/21 08:45:56;;;;;;;131.15;45.03;;;7.30;99.90;;;;;;4899357;29;20083;-88
2022/12/21 08:48:21;;;;;;;146.90;46.65;;;7.30;99.90;;;;;;4898629;29;20092;-89
2022/12/21 08:50:54;;;;;;;153.02;47.15;;;7.40;99.90;;;;;;4896377;29;20036;-88
2022/12/21 08:53:23;;;;;;;128.35;43.33;;;7.80;99.90;;;;;;4913427;29;20046;-89
2022/12/21 08:55:48;;;;;;;134.65;44.35;;;7.30;99.90;;;;;;4896664;29;21849;-88
2022/12/21 08:58:14;;;;;;;143.68;46.80;;;8.20;99.90;;;;;;4898765;29;20044;-89
2022/12/21 09:00:42;;;;;;;129.93;43.30;;;7.40;99.90;;;;;;4897275;29;20045;-89
2022/12/21 09:03:10;;;;;;;181.82;49.72;;;7.50;99.90;;;;;;4915056;29;20050;-88
2022/12/21 09:05:36;;;;;;;127.18;42.63;;;8.10;99.90;;;;;;4912874;29;20044;-88
2022/12/21 09:08:03;;;;;;;131.20;44.17;;;7.60;99.90;;;;;;4897049;29;20048;-91
2022/12/21 09:10:29;;;;;;;119.78;40.20;;;8.50;99.90;;;;;;4910441;29;20206;-89
2022/12/21 09:12:55;;;;;;;135.20;43.45;;;8.50;99.90;;;;;;4900141;29;20123;-88
2022/12/21 09:15:23;;;;;;;120.57;41.55;;;8.50;99.90;;;;;;4909692;29;20527;-89
2022/12/21 09:17:48;;;;;;;119.15;40.33;;;7.50;99.90;;;;;;4898784;29;20048;-88
2022/12/21 09:20:14;;;;;;;130.90;40.40;;;7.50;99.90;;;;;;4910788;29;20055;-88
2022/12/21 09:22:40;;;;;;;124.28;40.00;;;7.40;99.90;;;;;;4898942;29;20044;-89
2022/12/21 09:25:07;;;;;;;123.95;39.22;;;7.50;99.90;;;;;;4909850;29;20051;-89
2022/12/21 09:27:33;;;;;;;98.72;35.90;;;7.50;99.90;;;;;;4925218;29;20119;-88
2022/12/21 09:29:59;;;;;;;116.40;37.38;;;7.80;99.90;;;;;;4906695;29;20075;-86
2022/12/21 09:32:25;;;;;;;106.43;36.58;;;7.50;99.90;;;;;;4906244;29;20123;-86
2022/12/21 09:34:50;;;;;;;116.07;37.17;;;7.50;99.90;;;;;;4911166;29;20088;-92
2022/12/21 09:37:17;;;;;;;121.35;37.78;;;7.50;99.90;;;;;;4892252;29;20048;-84
2022/12/21 09:39:43;;;;;;;143.73;39.67;;;7.50;99.90;;;;;;4894716;29;20055;-86
2022/12/21 09:42:33;;;;;;;153.50;38.85;;;7.50;99.90;;;;;;4893456;29;20511;-83
2022/12/21 09:44:59;;;;;;;145.35;39.53;;;7.50;99.90;;;;;;4892438;29;20050;-84
2022/12/21 09:47:45;;;;;;;135.10;38.30;;;7.40;99.90;;;;;;4894871;29;20036;-85
2022/12/21 09:50:16;;;;;;;171.75;42.03;;;7.40;99.90;;;;;;4910098;29;20070;-86
2022/12/21 09:52:47;;;;;;;138.05;38.78;;;7.40;99.90;;;;;;4895128;29;20075;-85
2022/12/21 09:55:16;;;;;;;201.38;43.53;;;7.40;99.90;;;;;;4896509;29;20041;-84
2022/12/21 09:57:43;;;;;;;132.02;39.58;;;7.40;99.90;;;;;;4909417;29;20059;-84
2022/12/21 10:00:20;;;;;;;124.57;37.97;;;7.40;99.90;;;;;;4929657;29;20036;-85
2022/12/21 10:03:07;;;;;;;113.38;36.70;;;7.40;99.90;;;;;;4897509;29;20074;-85
2022/12/21 10:05:53;;;;;;;115.40;38.83;;;7.40;99.90;;;;;;4907817;29;20438;-86
2022/12/21 10:08:19;;;;;;;118.30;36.97;;;7.40;99.90;;;;;;4909586;29;20040;-87
2022/12/21 10:11:04;;;;;;;117.10;38.05;;;7.50;99.90;;;;;;4894241;29;20564;-85
2022/12/21 10:13:58;;;;;;;112.90;37.90;;;7.50;99.90;;;;;;4908697;29;20071;-84
2022/12/21 10:17:03;;;;;;;101.80;33.97;;;7.50;99.90;;;;;;4925731;29;20123;-85
2022/12/21 10:19:49;;;;;;;101.55;35.80;;;7.60;99.90;;;;;;4856228;29;20047;-85
2022/12/21 10:22:20;;;;;;;104.03;35.47;;;7.60;99.90;;;;;;4895506;29;20054;-85
2022/12/21 10:24:56;;;;;;;83.68;31.92;;;7.60;99.90;;;;;;4912859;29;20059;-86
2022/12/21 10:27:27;;;;;;;;;;;7.60;99.90;;;;;;4910222;29;20047;-84
2022/12/21 10:29:56;;;;;;;84.07;33.08;;;7.70;99.90;;;;;;4909299;29;19926;-86
2022/12/21 10:32:24;;;;;;;81.95;31.45;;;7.70;99.90;;;;;;4909858;29;21378;-84
2022/12/21 10:34:54;;;;;;;69.60;28.65;;;7.80;99.90;;;;;;4893907;29;20051;-86
2022/12/21 10:37:21;;;;;;;72.72;28.23;;;7.90;99.90;;;;;;4893808;29;20036;-85
2022/12/21 10:39:54;;;;;;;69.68;27.15;;;7.90;99.90;;;;;;4907669;29;20044;-84
2022/12/21 10:42:41;;;;;;;59.78;26.55;;;7.90;99.90;;;;;;4892929;29;20036;-85
2022/12/21 10:45:25;;;;;;;56.03;26.02;;;8.00;99.90;;;;;;4904822;29;20087;-84
2022/12/21 10:47:51;;;;;;;50.22;24.55;;;8.20;99.90;;;;;;4892135;29;20045;-86
2022/12/21 10:50:37;;;;;;;53.03;25.23;;;8.40;99.90;;;;;;4893180;29;20032;-85
2022/12/21 10:53:24;;;;;;;46.53;23.30;;;8.50;99.90;;;;;;4920141;29;20095;-88
2022/12/21 10:55:55;;;;;;;49.08;24.60;;;8.60;99.90;;;;;;4887365;29;20577;-84
2022/12/21 10:58:23;;;;;;;48.35;24.08;;;8.70;99.90;;;;;;4916093;29;20601;-84
2022/12/21 11:00:56;;;;;;;45.72;23.60;;;8.80;99.90;;;;;;4898162;29;20052;-83
2022/12/21 11:03:39;;;;;;;46.30;23.55;;;8.80;99.90;;;;;;4900399;29;20136;-83
2022/12/21 11:06:16;;;;;;;43.88;22.38;;;9.00;99.90;;;;;;4886251;29;20057;-83
2022/12/21 11:08:50;;;;;;;41.15;20.98;;;9.00;99.90;;;;;;4898052;29;20504;-83
2022/12/21 11:11:36;;;;;;;40.28;21.90;;;9.00;99.90;;;;;;4899516;29;20122;-84
2022/12/21 11:14:12;;;;;;;41.20;22.05;;;9.10;99.90;;;;;;4898708;29;20040;-83
2022/12/21 11:16:37;;;;;;;;;;;9.10;99.90;;;;;;4902294;29;20039;-83
2022/12/21 11:19:04;;;;;;;35.20;19.67;;;9.10;99.90;;;;;;4898930;29;20077;-82
2022/12/21 11:21:36;;;;;;;44.10;21.35;;;9.20;99.90;;;;;;4883940;29;20079;-83
2022/12/21 11:24:15;;;;;;;36.00;19.58;;;9.30;99.90;;;;;;4900461;29;20063;-84
2022/12/21 11:26:45;;;;;;;34.58;20.15;;;9.50;99.90;;;;;;4886331;29;20067;-82
2022/12/21 11:29:28;;;;;;;37.97;20.60;;;9.80;99.90;;;;;;4898167;29;20765;-83
2022/12/21 11:31:55;;;;;;;36.03;19.33;;;9.90;99.90;;;;;;4901764;29;20410;-83
2022/12/21 11:34:36;;;;;;;29.55;18.02;;;10.00;99.90;;;;;;4886103;29;20051;-83
2022/12/21 11:37:05;;;;;;;33.90;20.70;;;10.00;99.90;;;;;;4884611;29;20044;-84
2022/12/21 11:39:31;;;;;;;30.45;18.75;;;10.10;99.90;;;;;;4898524;29;20082;-84
2022/12/21 11:41:57;;;;;;;33.90;19.45;;;10.00;99.90;;;;;;4899682;29;20131;-83
2022/12/21 11:44:24;;;;;;;35.00;20.52;;;10.10;99.90;;;;;;4886417;29;20048;-83
2022/12/21 11:47:00;;;;;;;37.03;21.15;;;10.10;99.90;;;;;;4902944;29;20044;-84
2022/12/21 11:49:32;;;;;;;32.58;19.85;;;10.10;99.90;;;;;;4900054;29;20047;-83
2022/12/21 11:52:22;;;;;;;35.78;19.90;;;10.10;99.90;;;;;;4902809;29;20882;-83
2022/12/21 11:55:16;;;;;;;33.47;19.85;;;10.10;99.90;;;;;;4915637;29;20044;-86
2022/12/21 11:57:50;;;;;;;33.88;19.38;;;10.10;99.90;;;;;;4901962;29;20055;-84
2022/12/21 12:00:19;;;;;;;34.67;20.55;;;10.00;99.90;;;;;;4900368;29;20044;-85
2022/12/21 12:03:05;;;;;;;37.90;20.60;;;10.00;99.90;;;;;;4887443;29;20459;-84
2022/12/21 12:05:57;;;;;;;35.80;20.50;;;10.10;99.90;;;;;;4902266;29;20138;-85
2022/12/21 12:09:09;;;;;;;29.92;20.85;;;10.00;99.90;;;;;;4886064;29;21668;-84
2022/12/21 12:11:55;;;;;;;41.63;23.17;;;10.00;99.90;;;;;;4840617;29;20142;-83
2022/12/21 12:14:35;;;;;;;33.85;21.33;;;9.90;99.90;;;;;;4903176;29;20044;-83
2022/12/21 12:17:20;;;;;;;38.88;21.08;;;9.80;99.90;;;;;;4902675;29;20135;-84
2022/12/21 12:20:04;;;;;;;37.70;20.55;;;10.00;99.90;;;;;;4901360;29;20059;-83
2022/12/21 12:22:54;;;;;;;41.30;20.98;;;9.80;99.90;;;;;;4903455;29;20406;-83
2022/12/21 12:25:44;;;;;;;32.85;19.25;;;9.80;99.90;;;;;;4886323;29;20383;-84
2022/12/21 12:28:47;;;;;;;40.58;20.08;;;9.80;99.90;;;;;;4899262;29;20047;-83
2022/12/21 12:31:18;;;;;;;40.30;20.13;;;9.70;99.90;;;;;;4900658;29;20044;-84
2022/12/21 12:34:18;;;;;;;35.10;18.38;;;9.70;99.90;;;;;;4900168;29;20048;-84
2022/12/21 12:37:14;;;;;;;38.25;19.35;;;9.60;99.90;;;;;;4860184;29;20063;-87
2022/12/21 12:39:53;;;;;;;34.78;19.85;;;9.60;99.90;;;;;;4902044;29;20581;-86
2022/12/21 12:42:29;;;;;;;34.88;18.40;;;9.50;99.90;;;;;;4883669;29;20044;-86
2022/12/21 12:45:29;;;;;;;35.80;17.23;;;9.40;99.90;;;;;;4902897;29;20098;-87
2022/12/21 12:48:20;;;;;;;32.67;17.08;;;9.40;99.90;;;;;;4903133;29;20048;-86
2022/12/21 12:51:16;;;;;;;32.92;17.83;;;9.30;99.90;;;;;;4903918;29;20104;-86
2022/12/21 12:53:48;;;;;;;31.20;17.83;;;9.10;99.90;;;;;;4887693;29;20052;-84
2022/12/21 12:56:23;;;;;;;30.60;17.17;;;9.10;99.90;;;;;;4889324;29;20056;-84
2022/12/21 12:59:07;;;;;;;34.53;17.42;;;9.10;99.90;;;;;;4902543;29;20048;-85
2022/12/21 13:01:45;;;;;;;34.78;16.83;;;9.00;99.90;;;;;;4903032;29;20098;-84
2022/12/21 13:04:33;;;;;;;32.25;17.38;;;9.00;99.90;;;;;;4903999;29;20095;-85
2022/12/21 13:07:19;;;;;;;29.23;18.25;;;8.90;99.90;;;;;;4888697;29;20729;-85
2022/12/21 13:10:02;;;;;;;29.10;17.40;;;8.90;99.90;;;;;;4905323;29;20044;-85
2022/12/21 13:12:40;;;;;;;30.98;17.45;;;9.00;99.90;;;;;;4905225;29;20036;-85
2022/12/21 13:15:12;;;;;;;33.42;17.58;;;8.90;99.90;;;;;;4904368;29;20044;-85
2022/12/21 13:17:49;;;;;;;31.98;18.27;;;8.90;99.90;;;;;;4889125;29;20151;-85
2022/12/21 13:20:20;;;;;;;28.35;19.60;;;8.90;99.90;;;;;;4891931;29;20076;-85
2022/12/21 13:22:55;;;;;;;31.05;18.67;;;8.90;99.90;;;;;;4907846;29;20040;-86
2022/12/21 13:25:34;;;;;;;26.27;18.40;;;8.90;99.90;;;;;;4890741;29;20044;-85
2022/12/21 13:28:00;;;;;;;39.30;20.40;;;8.80;99.90;;;;;;4888576;29;20107;-85
2022/12/21 13:30:28;;;;;;;30.35;18.17;;;8.70;99.90;;;;;;4890806;29;20036;-85
2022/12/21 13:32:58;;;;;;;30.77;18.88;;;8.90;99.90;;;;;;4905541;29;20040;-83
2022/12/21 13:35:33;;;;;;;28.85;18.02;;;8.70;99.90;;;;;;4903234;29;20679;-84
2022/12/21 13:38:28;;;;;;;30.95;20.17;;;8.70;99.90;;;;;;4904766;29;20036;-80
2022/12/21 13:41:15;;;;;;;31.00;17.73;;;8.60;99.90;;;;;;4906282;29;20130;-83
2022/12/21 13:44:03;;;;;;;26.50;17.60;;;8.60;99.90;;;;;;4902475;29;20070;-84
2022/12/21 13:46:32;;;;;;;27.23;17.90;;;8.60;99.90;;;;;;4904507;29;20055;-84
2022/12/21 13:49:13;;;;;;;25.48;17.75;;;8.60;99.90;;;;;;4889695;29;20036;-85
2022/12/21 13:51:53;;;;;;;27.10;16.98;;;8.60;99.90;;;;;;4890110;29;20070;-84
2022/12/21 13:54:29;;;;;;;27.73;18.35;;;8.60;99.90;;;;;;4891357;29;20039;-84
2022/12/21 13:56:54;;;;;;;;;;;8.60;99.90;;;;;;4902374;29;20048;-84
2022/12/21 13:59:49;;;;;;;32.00;19.40;;;8.60;99.90;;;;;;4893228;29;20333;-85
2022/12/21 14:02:30;;;;;;;34.20;18.35;;;8.60;99.90;;;;;;4891219;29;20342;-85
2022/12/21 14:05:09;;;;;;;27.08;18.10;;;8.60;99.90;;;;;;4907361;29;20123;-84
2022/12/21 14:08:11;;;;;;;27.15;18.75;;;8.60;99.90;;;;;;4892594;29;20136;-84
2022/12/21 14:10:57;;;;;;;27.67;17.75;;;8.60;99.90;;;;;;4912805;29;20559;-85
2022/12/21 14:13:53;;;;;;;26.40;14.60;;;8.60;99.90;;;;;;4911399;29;20368;-85
2022/12/21 14:16:31;;;;;;;29.83;16.08;;;8.70;99.90;;;;;;4907571;29;20048;-86
2022/12/21 14:18:59;;;;;;;24.27;16.05;;;8.60;99.90;;;;;;4889240;29;20036;-86
2022/12/21 14:21:31;;;;;;;28.38;16.83;;;8.60;99.90;;;;;;4891990;29;20535;-85
2022/12/21 14:24:00;;;;;;;30.70;18.17;;;8.50;99.90;;;;;;4908316;29;20044;-86
2022/12/21 14:26:33;;;;;;;23.67;15.65;;;8.60;99.90;;;;;;4907917;29;20048;-86
2022/12/21 14:29:17;;;;;;;21.52;14.35;;;8.60;99.90;;;;;;4893871;29;20099;-85
2022/12/21 14:31:51;;;;;;;25.92;15.90;;;8.60;99.90;;;;;;4893015;29;20052;-85
2022/12/21 14:34:20;;;;;;;26.25;16.70;;;8.50;99.90;;;;;;4905176;29;20048;-85
2022/12/21 14:37:11;;;;;;;26.50;17.65;;;8.50;99.90;;;;;;4877761;29;20048;-84
2022/12/21 14:39:39;;;;;;;26.27;17.75;;;8.50;99.90;;;;;;4905294;29;20154;-85
2022/12/21 14:42:36;;;;;;;31.02;18.88;;;8.40;99.90;;;;;;4905001;29;20175;-86
2022/12/21 14:45:11;;;;;;;30.17;17.58;;;8.30;99.90;;;;;;4882274;29;20052;-86
2022/12/21 14:48:20;;;;;;;28.40;17.10;;;8.40;99.90;;;;;;4925009;29;20037;-82
2022/12/21 14:51:02;;;;;;;30.63;17.80;;;8.40;99.90;;;;;;4891710;29;20056;-83
2022/12/21 14:53:28;;;;;;;31.33;19.40;;;8.30;99.90;;;;;;4909312;29;20071;-83
2022/12/21 14:56:16;;;;;;;26.90;19.70;;;8.40;99.90;;;;;;4907858;29;20047;-83
2022/12/21 14:59:03;;;;;;;28.73;18.38;;;8.30;99.90;;;;;;4905590;29;20418;-83
2022/12/21 15:01:39;;;;;;;30.90;19.45;;;8.30;99.90;;;;;;4902206;29;20044;-84
2022/12/21 15:04:11;;;;;;;34.85;19.60;;;8.40;99.90;;;;;;4891868;29;20138;-84
2022/12/21 15:06:48;;;;;;;31.27;19.33;;;8.30;99.90;;;;;;4905586;29;20483;-85
2022/12/21 15:09:26;;;;;;;34.33;20.95;;;9.00;99.90;;;;;;4894659;29;20126;-84
2022/12/21 15:12:11;;;;;;;32.50;20.77;;;8.30;99.90;;;;;;4905718;29;20048;-81